createdAt,value
2018-09-30T00:03:00.649Z,11.48
2018-09-30T00:06:05.980Z,11.51
2018-09-30T00:09:10.704Z,11.56
2018-09-30T00:12:15.053Z,11.54
2018-09-30T00:15:19.580Z,11.56
2018-09-30T00:18:27.920Z,11.54
2018-09-30T00:21:32.314Z,11.56
2018-09-30T00:24:41.987Z,11.57
2018-09-30T00:27:46.358Z,11.52
2018-09-30T00:30:50.887Z,11.50
2018-09-30T00:34:00.676Z,11.48
2018-09-30T00:37:04.979Z,11.53
2018-09-30T00:40:09.512Z,11.50
2018-09-30T00:43:13.815Z,11.50
2018-09-30T00:46:18.272Z,11.53
2018-09-30T00:49:22.673Z,11.52
2018-09-30T00:52:27.071Z,11.56
2018-09-30T00:55:31.408Z,11.58
2018-09-30T00:58:35.916Z,11.59
2018-09-30T01:01:40.251Z,11.60
2018-09-30T01:04:44.560Z,11.61
2018-09-30T01:07:48.881Z,11.64
2018-09-30T01:10:53.217Z,11.64
2018-09-30T01:13:57.520Z,11.66
2018-09-30T01:17:01.935Z,11.63
2018-09-30T01:20:06.204Z,11.72
2018-09-30T01:23:10.513Z,11.68
2018-09-30T01:26:15.100Z,11.64
2018-09-30T01:29:19.426Z,11.62
2018-09-30T01:32:23.796Z,11.63
2018-09-30T01:35:28.189Z,11.64
2018-09-30T01:38:32.621Z,11.65
2018-09-30T01:41:37.123Z,11.72
2018-09-30T01:44:41.631Z,11.72
2018-09-30T01:47:46.018Z,11.66
2018-09-30T01:50:50.648Z,11.64
2018-09-30T01:53:55.154Z,11.60
2018-09-30T01:56:59.472Z,11.59
2018-09-30T02:00:03.956Z,11.61
2018-09-30T02:03:08.403Z,11.64
2018-09-30T02:06:12.745Z,11.64
2018-09-30T02:09:17.050Z,11.65
2018-09-30T02:12:21.373Z,11.69
2018-09-30T02:15:25.785Z,11.73
2018-09-30T02:18:30.139Z,11.74
2018-09-30T02:21:34.564Z,11.77
2018-09-30T02:24:39.038Z,11.78
2018-09-30T02:27:43.297Z,11.88
2018-09-30T02:30:47.547Z,11.86
2018-09-30T02:33:51.837Z,11.89
2018-09-30T02:36:56.152Z,11.92
2018-09-30T02:40:00.481Z,11.91
2018-09-30T02:43:04.801Z,11.95
2018-09-30T02:46:09.333Z,11.99
2018-09-30T02:49:13.652Z,12.00
2018-09-30T02:52:17.952Z,12.00
2018-09-30T02:55:22.233Z,11.96
2018-09-30T02:58:26.509Z,11.98
2018-09-30T03:01:30.828Z,11.98
2018-09-30T03:04:35.165Z,12.00
2018-09-30T03:07:44.748Z,11.93
2018-09-30T03:10:49.013Z,11.92
2018-09-30T03:13:53.335Z,11.91
2018-09-30T03:16:57.680Z,11.92
2018-09-30T03:20:01.996Z,11.85
2018-09-30T03:23:06.258Z,11.81
2018-09-30T03:26:10.530Z,11.81
2018-09-30T03:29:14.792Z,11.81
2018-09-30T03:32:19.077Z,11.80
2018-09-30T03:35:23.389Z,11.79
2018-09-30T03:38:27.686Z,11.79
2018-09-30T03:41:31.954Z,11.80
2018-09-30T03:44:36.235Z,11.80
2018-09-30T03:47:40.728Z,11.81
2018-09-30T03:50:45.030Z,11.89
2018-09-30T03:53:49.354Z,11.93
2018-09-30T03:56:53.747Z,12.00
2018-09-30T03:59:58.039Z,11.94
2018-09-30T04:03:02.379Z,11.94
2018-09-30T04:06:06.732Z,12.01
2018-09-30T04:09:11.209Z,12.00
2018-09-30T04:12:15.571Z,12.01
2018-09-30T04:15:19.878Z,12.01
2018-09-30T04:18:24.184Z,12.01
2018-09-30T04:21:28.528Z,12.05
2018-09-30T04:24:32.826Z,12.06
2018-09-30T04:27:37.168Z,12.04
2018-09-30T04:30:41.472Z,12.01
2018-09-30T04:33:45.817Z,12.05
2018-09-30T04:36:50.082Z,12.03
2018-09-30T04:39:54.350Z,12.06
2018-09-30T04:42:58.696Z,12.09
2018-09-30T04:46:02.985Z,12.07
2018-09-30T04:49:07.532Z,12.07
2018-09-30T04:52:11.842Z,12.04
2018-09-30T04:55:16.248Z,12.02
2018-09-30T04:58:20.501Z,12.07
2018-09-30T05:01:24.817Z,12.07
2018-09-30T05:04:29.129Z,12.08
2018-09-30T05:07:33.392Z,12.03
2018-09-30T05:10:37.673Z,12.00
2018-09-30T05:13:42.016Z,12.03
2018-09-30T05:16:46.296Z,12.03
2018-09-30T05:19:50.628Z,12.03
2018-09-30T05:22:55.733Z,12.02
2018-09-30T05:26:00.102Z,12.00
2018-09-30T05:29:04.408Z,11.95
2018-09-30T05:32:08.945Z,11.95
2018-09-30T05:35:13.262Z,11.89
2018-09-30T05:38:17.600Z,11.86
2018-09-30T05:41:22.003Z,11.82
2018-09-30T05:44:26.316Z,11.84
2018-09-30T05:47:30.643Z,11.81
2018-09-30T05:50:34.976Z,11.82
2018-09-30T05:53:39.281Z,11.87
2018-09-30T05:56:43.641Z,11.87
2018-09-30T05:59:47.923Z,11.87
2018-09-30T06:02:52.182Z,11.93
2018-09-30T06:05:56.454Z,11.89
2018-09-30T06:09:00.817Z,11.88
2018-09-30T06:12:05.110Z,11.93
2018-09-30T06:15:09.388Z,11.93
2018-09-30T06:18:13.655Z,11.96
2018-09-30T06:21:17.916Z,11.93
2018-09-30T06:24:22.207Z,11.96
2018-09-30T06:27:26.536Z,11.97
2018-09-30T06:30:30.840Z,11.98
2018-09-30T06:33:35.164Z,11.96
2018-09-30T06:36:39.522Z,11.95
2018-09-30T06:39:43.773Z,12.05
2018-09-30T06:42:48.133Z,12.02
2018-09-30T06:45:52.456Z,12.06
2018-09-30T06:48:56.707Z,12.07
2018-09-30T06:52:01.148Z,12.08
2018-09-30T06:55:05.450Z,12.09
2018-09-30T06:58:09.737Z,12.14
2018-09-30T07:01:14.115Z,12.17
2018-09-30T07:04:18.317Z,12.16
2018-09-30T07:07:22.596Z,12.21
2018-09-30T07:10:26.922Z,12.25
2018-09-30T07:13:31.243Z,12.26
2018-09-30T07:16:35.571Z,12.29
2018-09-30T07:19:39.921Z,12.33
2018-09-30T07:22:44.237Z,12.36
2018-09-30T07:25:48.528Z,12.33
2018-09-30T07:28:52.841Z,12.36
2018-09-30T07:31:57.191Z,12.42
2018-09-30T07:35:01.509Z,12.37
2018-09-30T07:38:05.782Z,12.36
2018-09-30T07:41:10.034Z,12.32
2018-09-30T07:44:14.400Z,12.31
2018-09-30T07:47:18.694Z,12.32
2018-09-30T07:50:23.007Z,12.27
2018-09-30T07:53:27.344Z,12.27
2018-09-30T07:56:31.661Z,12.31
2018-09-30T07:59:35.983Z,12.36
2018-09-30T08:02:40.302Z,12.39
2018-09-30T08:05:44.654Z,12.40
2018-09-30T08:08:49.051Z,12.48
2018-09-30T08:11:53.378Z,12.66
2018-09-30T08:14:57.695Z,12.58
2018-09-30T08:18:02.006Z,12.69
2018-09-30T08:21:06.482Z,12.70
2018-09-30T08:24:10.816Z,12.66
2018-09-30T08:27:15.094Z,12.62
2018-09-30T08:30:19.399Z,12.46
2018-09-30T08:33:23.732Z,12.39
2018-09-30T08:36:28.059Z,12.34
2018-09-30T08:39:32.306Z,12.19
2018-09-30T08:42:36.687Z,12.18
2018-09-30T08:45:40.993Z,12.19
2018-09-30T08:48:45.312Z,12.21
2018-09-30T08:51:49.660Z,12.23
2018-09-30T08:54:54.050Z,12.24
2018-09-30T08:57:58.384Z,12.38
2018-09-30T09:01:02.751Z,12.58
2018-09-30T09:04:07.268Z,12.89
2018-09-30T09:07:11.672Z,13.28
2018-09-30T09:10:15.963Z,13.70
2018-09-30T09:13:20.267Z,13.91
2018-09-30T09:16:24.650Z,13.95
2018-09-30T09:19:28.941Z,13.96
2018-09-30T09:22:33.418Z,13.90
2018-09-30T09:25:37.852Z,13.78
2018-09-30T09:28:42.229Z,13.77
2018-09-30T09:31:46.620Z,13.67
2018-09-30T09:34:50.899Z,13.62
2018-09-30T09:37:55.181Z,13.56
2018-09-30T09:40:59.497Z,13.56
2018-09-30T09:44:03.813Z,13.61
2018-09-30T09:47:08.108Z,13.65
2018-09-30T09:50:12.430Z,13.72
2018-09-30T09:53:16.718Z,13.75
2018-09-30T09:56:21.185Z,13.77
2018-09-30T09:59:25.565Z,13.70
2018-09-30T10:02:29.811Z,13.72
2018-09-30T10:05:34.120Z,13.72
2018-09-30T10:08:38.432Z,13.77
2018-09-30T10:11:42.675Z,13.87
2018-09-30T10:14:47.004Z,13.95
2018-09-30T10:17:51.327Z,13.99
2018-09-30T10:20:55.676Z,14.11
2018-09-30T10:23:59.956Z,14.24
2018-09-30T10:27:04.251Z,14.33
2018-09-30T10:30:08.579Z,14.49
2018-09-30T10:33:12.819Z,14.68
2018-09-30T10:36:17.122Z,14.76
2018-09-30T10:39:21.654Z,14.89
2018-09-30T10:42:25.773Z,14.88
2018-09-30T10:45:30.098Z,14.69
2018-09-30T10:48:34.428Z,14.63
2018-09-30T10:51:38.730Z,14.59
2018-09-30T10:54:43.069Z,14.60
2018-09-30T10:57:47.400Z,14.59
2018-09-30T11:00:52.427Z,14.56
2018-09-30T11:03:56.704Z,14.47
2018-09-30T11:07:01.311Z,14.60
2018-09-30T11:10:05.718Z,14.55
2018-09-30T11:13:09.983Z,14.51
2018-09-30T11:16:14.303Z,14.57
2018-09-30T11:19:18.623Z,14.59
2018-09-30T11:22:23.011Z,14.72
2018-09-30T11:25:27.261Z,14.83
2018-09-30T11:28:31.620Z,15.16
2018-09-30T11:31:35.898Z,15.22
2018-09-30T11:34:40.253Z,15.30
2018-09-30T11:37:44.541Z,15.12
2018-09-30T11:40:48.898Z,15.16
2018-09-30T11:43:53.322Z,15.45
2018-09-30T11:46:57.613Z,15.71
2018-09-30T11:50:01.946Z,15.26
2018-09-30T11:53:06.233Z,15.15
2018-09-30T11:56:11.795Z,15.09
2018-09-30T11:59:17.473Z,14.96
2018-09-30T12:02:21.845Z,14.79
2018-09-30T12:05:26.112Z,14.85
2018-09-30T12:08:30.564Z,14.90
2018-09-30T12:11:34.880Z,14.79
2018-09-30T12:14:39.188Z,14.78
2018-09-30T12:17:43.472Z,14.85
2018-09-30T12:20:48.115Z,14.92
2018-09-30T12:23:52.417Z,15.27
2018-09-30T12:26:56.702Z,15.51
2018-09-30T12:30:01.013Z,15.36
2018-09-30T12:33:05.318Z,15.15
2018-09-30T12:36:09.630Z,14.97
2018-09-30T12:39:13.976Z,14.86
2018-09-30T12:42:18.378Z,14.82
2018-09-30T12:45:22.639Z,15.02
2018-09-30T12:48:26.931Z,15.34
2018-09-30T12:51:31.512Z,15.60
2018-09-30T12:54:35.824Z,15.88
2018-09-30T12:57:40.112Z,16.07
2018-09-30T13:00:44.413Z,16.14
2018-09-30T13:03:48.701Z,16.25
2018-09-30T13:06:53.060Z,16.48
2018-09-30T13:09:57.399Z,16.58
2018-09-30T13:13:01.710Z,16.65
2018-09-30T13:16:06.076Z,16.65
2018-09-30T13:19:10.444Z,16.28
2018-09-30T13:22:14.785Z,16.05
2018-09-30T13:25:19.123Z,15.95
2018-09-30T13:28:23.511Z,15.70
2018-09-30T13:31:27.835Z,15.41
2018-09-30T13:34:32.120Z,15.34
2018-09-30T13:37:36.460Z,15.55
2018-09-30T13:40:40.835Z,15.82
2018-09-30T13:43:45.094Z,16.16
2018-09-30T13:46:49.442Z,16.40
2018-09-30T13:49:53.742Z,16.68
2018-09-30T13:52:58.106Z,16.86
2018-09-30T13:56:02.443Z,16.78
2018-09-30T13:59:06.842Z,16.77
2018-09-30T14:02:11.172Z,16.74
2018-09-30T14:05:15.486Z,16.58
2018-09-30T14:08:19.788Z,16.28
2018-09-30T14:11:24.072Z,16.08
2018-09-30T14:14:28.445Z,16.06
2018-09-30T14:17:32.756Z,15.74
2018-09-30T14:20:37.043Z,15.68
2018-09-30T14:23:41.407Z,15.74
2018-09-30T14:26:45.882Z,15.63
2018-09-30T14:29:50.297Z,15.48
2018-09-30T14:32:54.709Z,15.45
2018-09-30T14:35:59.094Z,15.41
2018-09-30T14:39:04.777Z,15.36
2018-09-30T14:42:09.184Z,15.12
2018-09-30T14:45:13.519Z,15.06
2018-09-30T14:48:17.863Z,14.91
2018-09-30T14:51:22.240Z,14.78
2018-09-30T14:54:26.625Z,14.56
2018-09-30T14:57:30.979Z,14.43
2018-09-30T15:00:35.313Z,14.30
2018-09-30T15:03:39.621Z,14.29
2018-09-30T15:06:43.945Z,14.22
2018-09-30T15:09:48.309Z,14.25
2018-09-30T15:12:52.602Z,14.22
2018-09-30T15:15:56.884Z,14.23
2018-09-30T15:19:01.244Z,14.25
2018-09-30T15:22:05.585Z,14.26
2018-09-30T15:25:09.886Z,14.23
2018-09-30T15:28:14.207Z,14.24
2018-09-30T15:31:18.526Z,14.21
2018-09-30T15:34:22.792Z,14.23
2018-09-30T15:37:27.086Z,14.25
2018-09-30T15:40:31.366Z,14.21
2018-09-30T15:43:35.837Z,14.19
2018-09-30T15:46:40.107Z,14.15
2018-09-30T15:49:44.437Z,14.11
2018-09-30T15:52:48.717Z,14.08
2018-09-30T15:55:53.005Z,14.05
2018-09-30T15:58:57.300Z,14.04
2018-09-30T16:02:01.622Z,13.97
2018-09-30T16:05:06.234Z,13.94
2018-09-30T16:08:10.602Z,13.90
2018-09-30T16:11:14.884Z,13.87
2018-09-30T16:14:19.197Z,13.87
2018-09-30T16:17:23.578Z,13.81
2018-09-30T16:20:27.979Z,13.73
2018-09-30T16:23:32.313Z,13.66
2018-09-30T16:26:36.688Z,13.51
2018-09-30T16:29:41.064Z,13.39
2018-09-30T16:32:45.403Z,13.28
2018-09-30T16:35:49.761Z,13.23
2018-09-30T16:38:54.141Z,13.14
2018-09-30T16:41:58.479Z,13.06
2018-09-30T16:45:02.919Z,13.03
2018-09-30T16:48:07.274Z,12.96
2018-09-30T16:51:11.653Z,12.90
2018-09-30T16:54:16.035Z,12.88
2018-09-30T16:57:20.385Z,12.86
2018-09-30T17:00:27.844Z,12.86
2018-09-30T17:03:32.298Z,12.86
2018-09-30T17:06:36.594Z,12.82
2018-09-30T17:09:41.026Z,12.79
2018-09-30T17:12:45.379Z,12.72
2018-09-30T17:15:49.761Z,12.68
2018-09-30T17:18:54.160Z,12.63
2018-09-30T17:21:58.495Z,12.59
2018-09-30T17:25:02.845Z,12.51
2018-09-30T17:28:07.762Z,12.45
2018-09-30T17:31:12.260Z,12.39
2018-09-30T17:34:16.844Z,12.35
2018-09-30T17:37:21.318Z,12.29
2018-09-30T17:40:25.768Z,12.25
2018-09-30T17:43:30.254Z,12.21
2018-09-30T17:46:34.621Z,12.17
2018-09-30T17:49:39.203Z,12.13
2018-09-30T17:52:43.600Z,12.10
2018-09-30T17:55:48.363Z,12.11
2018-09-30T17:58:52.789Z,12.11
2018-09-30T18:01:57.548Z,12.13
2018-09-30T18:05:01.944Z,12.14
2018-09-30T18:08:06.554Z,12.13
2018-09-30T18:11:11.189Z,12.09
2018-09-30T18:14:16.273Z,12.05
2018-09-30T18:17:23.086Z,12.01
2018-09-30T18:20:27.922Z,11.96
2018-09-30T18:23:32.693Z,11.91
2018-09-30T18:26:37.443Z,11.87
2018-09-30T18:29:42.324Z,11.85
2018-09-30T18:32:47.146Z,11.84
2018-09-30T18:35:51.932Z,11.83
2018-09-30T18:38:56.697Z,11.82
2018-09-30T18:42:01.374Z,11.81
2018-09-30T18:45:06.263Z,11.82
2018-09-30T18:48:11.511Z,11.85
2018-09-30T18:51:16.230Z,11.86
2018-09-30T18:54:20.984Z,11.83
2018-09-30T18:57:26.717Z,11.80
2018-09-30T19:00:32.193Z,11.74
2018-09-30T19:03:36.999Z,11.70
2018-09-30T19:06:41.818Z,11.69
2018-09-30T19:09:46.609Z,11.66
2018-09-30T19:12:51.300Z,11.63
2018-09-30T19:15:56.065Z,11.60
2018-09-30T19:19:00.745Z,11.57
2018-09-30T19:22:05.530Z,11.58
2018-09-30T19:25:10.171Z,11.58
2018-09-30T19:28:15.032Z,11.56
2018-09-30T19:31:20.357Z,11.56
2018-09-30T19:34:25.259Z,11.57
2018-09-30T19:37:30.027Z,11.57
2018-09-30T19:40:34.852Z,11.58
2018-09-30T19:43:39.600Z,11.54
2018-09-30T19:46:44.232Z,11.55
2018-09-30T19:49:48.922Z,11.51
2018-09-30T19:52:53.562Z,11.50
2018-09-30T19:55:58.356Z,11.47
2018-09-30T19:59:03.062Z,11.44
2018-09-30T20:02:08.085Z,11.43
2018-09-30T20:05:12.625Z,11.46
2018-09-30T20:08:17.151Z,11.49
2018-09-30T20:11:21.449Z,11.49
2018-09-30T20:14:25.866Z,11.51
2018-09-30T20:17:30.234Z,11.49
2018-09-30T20:20:34.618Z,11.49
2018-09-30T20:23:39.003Z,11.44
2018-09-30T20:26:43.445Z,11.32
2018-09-30T20:29:47.836Z,11.18
2018-09-30T20:32:52.176Z,11.06
2018-09-30T20:35:56.474Z,10.98
2018-09-30T20:39:00.818Z,10.92
2018-09-30T20:42:05.158Z,10.85
2018-09-30T20:45:09.541Z,10.80
2018-09-30T20:48:13.893Z,10.77
2018-09-30T20:51:18.163Z,10.75
2018-09-30T20:54:22.666Z,10.69
2018-09-30T20:57:27.054Z,10.65
2018-09-30T21:00:31.490Z,10.72
2018-09-30T21:03:35.888Z,10.81
2018-09-30T21:06:41.598Z,10.85
2018-09-30T21:09:46.025Z,10.86
2018-09-30T21:12:50.402Z,10.86
2018-09-30T21:15:54.886Z,10.85
2018-09-30T21:18:59.263Z,10.83
2018-09-30T21:22:03.563Z,10.85
2018-09-30T21:25:08.024Z,10.87
2018-09-30T21:28:12.422Z,10.95
2018-09-30T21:31:16.710Z,10.99
2018-09-30T21:34:21.218Z,10.98
2018-09-30T21:37:25.857Z,10.97
2018-09-30T21:40:30.194Z,10.97
2018-09-30T21:43:34.540Z,10.99
2018-09-30T21:46:39.309Z,10.98
2018-09-30T21:49:43.691Z,10.98
2018-09-30T21:52:48.108Z,11.02
2018-09-30T21:55:53.312Z,11.07
2018-09-30T21:58:58.546Z,11.10
2018-09-30T22:02:03.641Z,11.10
2018-09-30T22:05:08.014Z,11.05
2018-09-30T22:08:12.695Z,11.01
2018-09-30T22:11:17.021Z,11.01
2018-09-30T22:14:21.349Z,11.04
2018-09-30T22:17:25.661Z,11.07
2018-09-30T22:20:29.999Z,11.08
2018-09-30T22:23:34.412Z,11.06
2018-09-30T22:26:38.808Z,11.02
2018-09-30T22:29:43.123Z,10.98
2018-09-30T22:32:47.617Z,10.93
2018-09-30T22:35:51.902Z,10.95
2018-09-30T22:38:56.190Z,10.95
2018-09-30T22:42:00.478Z,10.91
2018-09-30T22:45:05.106Z,10.89
2018-09-30T22:48:09.501Z,10.85
2018-09-30T22:51:13.843Z,10.76
2018-09-30T22:54:18.119Z,10.65
2018-09-30T22:57:22.482Z,10.51
2018-09-30T23:00:26.918Z,10.40
2018-09-30T23:03:31.322Z,10.43
2018-09-30T23:06:35.653Z,10.50
2018-09-30T23:09:40.029Z,10.57
2018-09-30T23:12:44.362Z,10.63
2018-09-30T23:15:48.640Z,10.64
2018-09-30T23:18:53.139Z,10.62
2018-09-30T23:21:57.673Z,10.51
2018-09-30T23:25:03.154Z,10.36
2018-09-30T23:28:07.457Z,10.21
2018-09-30T23:31:11.816Z,10.08
2018-09-30T23:34:16.132Z,9.96
2018-09-30T23:37:20.482Z,9.87
2018-09-30T23:40:24.895Z,9.80
2018-09-30T23:43:29.150Z,9.82
2018-09-30T23:46:33.676Z,9.80
2018-09-30T23:49:37.944Z,9.85
2018-09-30T23:52:42.267Z,9.93
2018-09-30T23:55:46.576Z,10.04
2018-09-30T23:58:51.008Z,10.11
